sensor_id;sensor_type;location;lat;lon;timestamp;temperature;humidity
14415;DHT22;7307;50.852;4.314;2022-07-23T00:00:52;26.00;54.40
14415;DHT22;7307;50.852;4.314;2022-07-23T00:03:18;26.00;54.40
14415;DHT22;7307;50.852;4.314;2022-07-23T00:05:43;26.00;54.40
14415;DHT22;7307;50.852;4.314;2022-07-23T00:08:09;25.90;54.40
14415;DHT22;7307;50.852;4.314;2022-07-23T00:10:35;26.00;54.40
14415;DHT22;7307;50.852;4.314;2022-07-23T00:13:01;26.00;54.40
14415;DHT22;7307;50.852;4.314;2022-07-23T00:15:26;25.90;54.40
14415;DHT22;7307;50.852;4.314;2022-07-23T00:17:52;25.90;54.40
14415;DHT22;7307;50.852;4.314;2022-07-23T00:20:18;26.00;54.50
14415;DHT22;7307;50.852;4.314;2022-07-23T00:25:13;25.90;54.40
14415;DHT22;7307;50.852;4.314;2022-07-23T00:27:38;26.00;54.50
14415;DHT22;7307;50.852;4.314;2022-07-23T00:30:04;25.90;54.40
14415;DHT22;7307;50.852;4.314;2022-07-23T00:32:30;26.00;54.40
14415;DHT22;7307;50.852;4.314;2022-07-23T00:34:56;26.00;54.50
14415;DHT22;7307;50.852;4.314;2022-07-23T00:37:21;25.90;54.40
14415;DHT22;7307;50.852;4.314;2022-07-23T00:39:47;25.90;54.40
14415;DHT22;7307;50.852;4.314;2022-07-23T00:42:12;26.00;54.40
14415;DHT22;7307;50.852;4.314;2022-07-23T00:44:38;25.90;54.40
14415;DHT22;7307;50.852;4.314;2022-07-23T00:47:03;26.00;54.50
14415;DHT22;7307;50.852;4.314;2022-07-23T00:49:31;25.90;54.40
14415;DHT22;7307;50.852;4.314;2022-07-23T00:51:57;26.00;54.50
14415;DHT22;7307;50.852;4.314;2022-07-23T00:54:26;25.90;54.40
14415;DHT22;7307;50.852;4.314;2022-07-23T00:56:52;25.90;54.40
14415;DHT22;7307;50.852;4.314;2022-07-23T00:59:18;26.00;54.40
14415;DHT22;7307;50.852;4.314;2022-07-23T01:01:44;25.90;54.40
14415;DHT22;7307;50.852;4.314;2022-07-23T01:04:10;26.00;54.50
14415;DHT22;7307;50.852;4.314;2022-07-23T01:06:37;25.90;54.40
14415;DHT22;7307;50.852;4.314;2022-07-23T01:09:05;25.90;54.40
14415;DHT22;7307;50.852;4.314;2022-07-23T01:11:33;26.00;54.50
14415;DHT22;7307;50.852;4.314;2022-07-23T01:13:59;26.00;54.50
14415;DHT22;7307;50.852;4.314;2022-07-23T01:16:32;26.00;54.50
14415;DHT22;7307;50.852;4.314;2022-07-23T01:18:58;26.00;54.50
14415;DHT22;7307;50.852;4.314;2022-07-23T01:21:24;25.90;54.40
14415;DHT22;7307;50.852;4.314;2022-07-23T01:23:50;26.00;54.50
14415;DHT22;7307;50.852;4.314;2022-07-23T01:26:15;25.90;54.40
14415;DHT22;7307;50.852;4.314;2022-07-23T01:28:42;25.90;54.40
14415;DHT22;7307;50.852;4.314;2022-07-23T01:31:08;25.90;54.40
14415;DHT22;7307;50.852;4.314;2022-07-23T01:33:34;25.90;54.40
14415;DHT22;7307;50.852;4.314;2022-07-23T01:35:59;25.90;54.40
14415;DHT22;7307;50.852;4.314;2022-07-23T01:38:25;25.90;54.40
14415;DHT22;7307;50.852;4.314;2022-07-23T01:40:50;25.90;54.40
14415;DHT22;7307;50.852;4.314;2022-07-23T01:43:16;25.90;54.40
14415;DHT22;7307;50.852;4.314;2022-07-23T01:45:42;25.90;54.40
14415;DHT22;7307;50.852;4.314;2022-07-23T01:48:09;25.90;54.40
14415;DHT22;7307;50.852;4.314;2022-07-23T01:50:35;26.00;54.50
14415;DHT22;7307;50.852;4.314;2022-07-23T01:53:00;25.90;54.40
14415;DHT22;7307;50.852;4.314;2022-07-23T01:55:26;25.90;54.40
14415;DHT22;7307;50.852;4.314;2022-07-23T01:57:51;25.90;54.40
14415;DHT22;7307;50.852;4.314;2022-07-23T02:00:17;26.00;54.40
14415;DHT22;7307;50.852;4.314;2022-07-23T02:02:43;26.00;54.50
14415;DHT22;7307;50.852;4.314;2022-07-23T02:05:09;26.00;54.40
14415;DHT22;7307;50.852;4.314;2022-07-23T02:07:34;25.90;54.40
14415;DHT22;7307;50.852;4.314;2022-07-23T02:10:00;26.00;54.40
14415;DHT22;7307;50.852;4.314;2022-07-23T02:12:26;25.90;54.40
14415;DHT22;7307;50.852;4.314;2022-07-23T02:14:51;26.00;54.50
14415;DHT22;7307;50.852;4.314;2022-07-23T02:17:17;25.90;55.10
14415;DHT22;7307;50.852;4.314;2022-07-23T02:19:42;25.90;54.40
14415;DHT22;7307;50.852;4.314;2022-07-23T02:22:08;25.90;54.40
14415;DHT22;7307;50.852;4.314;2022-07-23T02:24:33;25.90;54.40
14415;DHT22;7307;50.852;4.314;2022-07-23T02:26:59;25.90;54.50
14415;DHT22;7307;50.852;4.314;2022-07-23T02:29:25;25.90;54.40
14415;DHT22;7307;50.852;4.314;2022-07-23T02:31:50;26.00;54.50
14415;DHT22;7307;50.852;4.314;2022-07-23T02:34:16;26.00;54.50
14415;DHT22;7307;50.852;4.314;2022-07-23T02:36:41;26.00;54.50
14415;DHT22;7307;50.852;4.314;2022-07-23T02:39:07;25.90;54.40
14415;DHT22;7307;50.852;4.314;2022-07-23T02:41:33;25.90;54.40
14415;DHT22;7307;50.852;4.314;2022-07-23T02:43:59;26.00;54.50
14415;DHT22;7307;50.852;4.314;2022-07-23T02:46:24;25.90;54.40
14415;DHT22;7307;50.852;4.314;2022-07-23T02:48:50;25.90;54.50
14415;DHT22;7307;50.852;4.314;2022-07-23T02:51:15;25.90;54.50
14415;DHT22;7307;50.852;4.314;2022-07-23T02:53:41;25.90;54.50
14415;DHT22;7307;50.852;4.314;2022-07-23T02:56:07;25.90;54.50
14415;DHT22;7307;50.852;4.314;2022-07-23T02:58:32;25.90;54.50
14415;DHT22;7307;50.852;4.314;2022-07-23T03:00:58;25.90;54.50
14415;DHT22;7307;50.852;4.314;2022-07-23T03:03:24;25.90;54.40
14415;DHT22;7307;50.852;4.314;2022-07-23T03:05:49;25.90;54.40
14415;DHT22;7307;50.852;4.314;2022-07-23T03:08:15;25.90;54.40
14415;DHT22;7307;50.852;4.314;2022-07-23T03:10:40;25.90;54.40
14415;DHT22;7307;50.852;4.314;2022-07-23T03:13:06;25.90;54.40
14415;DHT22;7307;50.852;4.314;2022-07-23T03:15:32;25.90;54.40
14415;DHT22;7307;50.852;4.314;2022-07-23T03:17:57;25.90;54.50
14415;DHT22;7307;50.852;4.314;2022-07-23T03:20:23;25.90;54.50
14415;DHT22;7307;50.852;4.314;2022-07-23T03:22:48;25.90;54.40
14415;DHT22;7307;50.852;4.314;2022-07-23T03:25:14;25.90;54.40
14415;DHT22;7307;50.852;4.314;2022-07-23T03:27:39;25.90;54.40
14415;DHT22;7307;50.852;4.314;2022-07-23T03:30:05;25.90;54.40
14415;DHT22;7307;50.852;4.314;2022-07-23T03:32:31;25.90;54.40
14415;DHT22;7307;50.852;4.314;2022-07-23T03:34:57;25.90;54.40
14415;DHT22;7307;50.852;4.314;2022-07-23T03:37:22;25.90;54.40
14415;DHT22;7307;50.852;4.314;2022-07-23T03:39:48;25.90;54.40
14415;DHT22;7307;50.852;4.314;2022-07-23T03:42:14;25.90;54.40
14415;DHT22;7307;50.852;4.314;2022-07-23T03:44:39;25.90;54.50
14415;DHT22;7307;50.852;4.314;2022-07-23T03:47:05;25.90;54.40
14415;DHT22;7307;50.852;4.314;2022-07-23T03:49:31;25.90;54.40
14415;DHT22;7307;50.852;4.314;2022-07-23T03:51:57;25.90;54.40
14415;DHT22;7307;50.852;4.314;2022-07-23T03:54:23;25.90;54.40
14415;DHT22;7307;50.852;4.314;2022-07-23T03:56:48;25.90;54.40
14415;DHT22;7307;50.852;4.314;2022-07-23T03:59:14;25.90;54.50
14415;DHT22;7307;50.852;4.314;2022-07-23T04:01:40;25.90;54.40
14415;DHT22;7307;50.852;4.314;2022-07-23T04:04:05;25.90;54.50
14415;DHT22;7307;50.852;4.314;2022-07-23T04:06:33;25.90;54.50
14415;DHT22;7307;50.852;4.314;2022-07-23T04:08:59;25.90;54.40
14415;DHT22;7307;50.852;4.314;2022-07-23T04:11:25;25.90;54.40
14415;DHT22;7307;50.852;4.314;2022-07-23T04:13:50;25.90;54.40
14415;DHT22;7307;50.852;4.314;2022-07-23T04:16:16;25.90;54.40
14415;DHT22;7307;50.852;4.314;2022-07-23T04:18:41;25.90;54.40
14415;DHT22;7307;50.852;4.314;2022-07-23T04:21:07;25.90;54.40
14415;DHT22;7307;50.852;4.314;2022-07-23T04:23:33;25.90;54.40
14415;DHT22;7307;50.852;4.314;2022-07-23T04:25:58;25.90;54.40
14415;DHT22;7307;50.852;4.314;2022-07-23T04:28:24;25.90;54.50
14415;DHT22;7307;50.852;4.314;2022-07-23T04:30:49;25.90;55.10
14415;DHT22;7307;50.852;4.314;2022-07-23T04:33:15;25.90;54.40
14415;DHT22;7307;50.852;4.314;2022-07-23T04:35:41;25.80;54.40
14415;DHT22;7307;50.852;4.314;2022-07-23T04:38:06;25.90;54.50
14415;DHT22;7307;50.852;4.314;2022-07-23T04:40:32;25.90;54.40
14415;DHT22;7307;50.852;4.314;2022-07-23T04:42:57;25.90;54.40
14415;DHT22;7307;50.852;4.314;2022-07-23T04:45:23;25.90;54.40
14415;DHT22;7307;50.852;4.314;2022-07-23T04:47:50;25.90;54.40
14415;DHT22;7307;50.852;4.314;2022-07-23T04:50:16;25.90;54.40
14415;DHT22;7307;50.852;4.314;2022-07-23T04:52:47;25.90;54.40
14415;DHT22;7307;50.852;4.314;2022-07-23T04:55:13;25.90;54.40
14415;DHT22;7307;50.852;4.314;2022-07-23T04:57:39;25.80;54.40
14415;DHT22;7307;50.852;4.314;2022-07-23T05:00:05;25.90;54.40
14415;DHT22;7307;50.852;4.314;2022-07-23T05:02:31;25.90;54.40
14415;DHT22;7307;50.852;4.314;2022-07-23T05:04:56;25.90;54.70
14415;DHT22;7307;50.852;4.314;2022-07-23T05:07:22;25.90;54.40
14415;DHT22;7307;50.852;4.314;2022-07-23T05:09:47;25.80;54.40
14415;DHT22;7307;50.852;4.314;2022-07-23T05:12:13;25.80;54.40
14415;DHT22;7307;50.852;4.314;2022-07-23T05:14:39;25.80;54.40
14415;DHT22;7307;50.852;4.314;2022-07-23T05:17:04;25.90;54.40
14415;DHT22;7307;50.852;4.314;2022-07-23T05:19:30;25.90;54.40
14415;DHT22;7307;50.852;4.314;2022-07-23T05:21:55;25.90;54.40
14415;DHT22;7307;50.852;4.314;2022-07-23T05:24:21;25.90;54.40
14415;DHT22;7307;50.852;4.314;2022-07-23T05:26:47;25.90;54.40
14415;DHT22;7307;50.852;4.314;2022-07-23T05:29:12;25.80;54.90
14415;DHT22;7307;50.852;4.314;2022-07-23T05:31:38;25.80;54.40
14415;DHT22;7307;50.852;4.314;2022-07-23T05:34:03;25.90;54.40
14415;DHT22;7307;50.852;4.314;2022-07-23T05:36:31;25.90;54.40
14415;DHT22;7307;50.852;4.314;2022-07-23T05:38:56;25.80;54.40
14415;DHT22;7307;50.852;4.314;2022-07-23T05:41:22;25.90;55.00
14415;DHT22;7307;50.852;4.314;2022-07-23T05:43:48;25.80;54.40
14415;DHT22;7307;50.852;4.314;2022-07-23T05:46:13;25.90;54.40
14415;DHT22;7307;50.852;4.314;2022-07-23T05:48:39;25.90;54.40
14415;DHT22;7307;50.852;4.314;2022-07-23T05:51:05;25.80;54.40
14415;DHT22;7307;50.852;4.314;2022-07-23T05:53:32;25.80;54.40
14415;DHT22;7307;50.852;4.314;2022-07-23T05:55:58;25.80;54.40
14415;DHT22;7307;50.852;4.314;2022-07-23T05:58:23;25.90;54.40
14415;DHT22;7307;50.852;4.314;2022-07-23T06:00:49;25.90;54.40
14415;DHT22;7307;50.852;4.314;2022-07-23T06:03:15;25.80;54.40
14415;DHT22;7307;50.852;4.314;2022-07-23T06:05:40;25.80;54.40
14415;DHT22;7307;50.852;4.314;2022-07-23T06:08:06;25.80;54.40
14415;DHT22;7307;50.852;4.314;2022-07-23T06:10:31;25.80;54.40
14415;DHT22;7307;50.852;4.314;2022-07-23T06:12:57;25.80;54.40
14415;DHT22;7307;50.852;4.314;2022-07-23T06:15:23;25.90;54.50
14415;DHT22;7307;50.852;4.314;2022-07-23T06:17:49;25.80;54.40
14415;DHT22;7307;50.852;4.314;2022-07-23T06:20:14;25.80;54.40
14415;DHT22;7307;50.852;4.314;2022-07-23T06:22:40;25.80;54.40
14415;DHT22;7307;50.852;4.314;2022-07-23T06:25:06;25.80;55.00
14415;DHT22;7307;50.852;4.314;2022-07-23T06:27:32;25.80;54.40
14415;DHT22;7307;50.852;4.314;2022-07-23T06:29:58;25.80;54.40
14415;DHT22;7307;50.852;4.314;2022-07-23T06:32:23;25.90;54.40
14415;DHT22;7307;50.852;4.314;2022-07-23T06:34:49;25.80;54.40
14415;DHT22;7307;50.852;4.314;2022-07-23T06:37:17;25.80;54.40
14415;DHT22;7307;50.852;4.314;2022-07-23T06:39:43;25.90;54.40
14415;DHT22;7307;50.852;4.314;2022-07-23T06:42:08;25.80;54.40
14415;DHT22;7307;50.852;4.314;2022-07-23T06:44:35;25.80;54.40
14415;DHT22;7307;50.852;4.314;2022-07-23T06:47:01;25.90;54.50
14415;DHT22;7307;50.852;4.314;2022-07-23T06:49:26;25.80;54.40
14415;DHT22;7307;50.852;4.314;2022-07-23T06:51:52;25.80;54.40
14415;DHT22;7307;50.852;4.314;2022-07-23T06:54:18;25.80;54.40
14415;DHT22;7307;50.852;4.314;2022-07-23T06:56:43;25.80;55.00
14415;DHT22;7307;50.852;4.314;2022-07-23T06:59:09;25.80;54.40
14415;DHT22;7307;50.852;4.314;2022-07-23T07:01:35;25.80;54.40
14415;DHT22;7307;50.852;4.314;2022-07-23T07:04:00;25.80;54.40
14415;DHT22;7307;50.852;4.314;2022-07-23T07:06:26;25.80;54.50
14415;DHT22;7307;50.852;4.314;2022-07-23T07:08:51;25.80;54.50
14415;DHT22;7307;50.852;4.314;2022-07-23T07:11:17;25.80;54.50
14415;DHT22;7307;50.852;4.314;2022-07-23T07:13:43;25.80;54.50
14415;DHT22;7307;50.852;4.314;2022-07-23T07:16:08;25.80;54.50
14415;DHT22;7307;50.852;4.314;2022-07-23T07:18:34;25.80;54.50
14415;DHT22;7307;50.852;4.314;2022-07-23T07:21:00;25.80;54.50
14415;DHT22;7307;50.852;4.314;2022-07-23T07:23:25;25.80;54.50
14415;DHT22;7307;50.852;4.314;2022-07-23T07:25:51;25.80;54.50
14415;DHT22;7307;50.852;4.314;2022-07-23T07:28:16;25.80;54.50
14415;DHT22;7307;50.852;4.314;2022-07-23T07:30:42;25.80;54.40
14415;DHT22;7307;50.852;4.314;2022-07-23T07:33:08;25.80;54.40
14415;DHT22;7307;50.852;4.314;2022-07-23T07:35:33;25.80;54.40
14415;DHT22;7307;50.852;4.314;2022-07-23T07:38:00;25.80;54.40
14415;DHT22;7307;50.852;4.314;2022-07-23T07:40:26;25.80;54.40
14415;DHT22;7307;50.852;4.314;2022-07-23T07:42:53;25.80;54.40
14415;DHT22;7307;50.852;4.314;2022-07-23T07:45:23;25.90;54.50
14415;DHT22;7307;50.852;4.314;2022-07-23T07:47:50;25.80;54.40
14415;DHT22;7307;50.852;4.314;2022-07-23T07:50:16;25.80;54.40
14415;DHT22;7307;50.852;4.314;2022-07-23T07:52:42;25.80;54.40
14415;DHT22;7307;50.852;4.314;2022-07-23T07:55:09;25.80;54.40
14415;DHT22;7307;50.852;4.314;2022-07-23T07:57:35;25.90;54.50
14415;DHT22;7307;50.852;4.314;2022-07-23T08:00:01;25.90;54.50
14415;DHT22;7307;50.852;4.314;2022-07-23T08:02:27;25.80;54.50
14415;DHT22;7307;50.852;4.314;2022-07-23T08:04:52;25.80;54.40
14415;DHT22;7307;50.852;4.314;2022-07-23T08:07:19;25.90;54.60
14415;DHT22;7307;50.852;4.314;2022-07-23T08:09:44;25.80;54.80
14415;DHT22;7307;50.852;4.314;2022-07-23T08:12:10;25.90;55.20
14415;DHT22;7307;50.852;4.314;2022-07-23T08:14:36;25.90;54.40
14415;DHT22;7307;50.852;4.314;2022-07-23T08:17:01;25.90;53.70
14415;DHT22;7307;50.852;4.314;2022-07-23T08:19:27;25.90;53.30
14415;DHT22;7307;50.852;4.314;2022-07-23T08:21:53;25.90;53.10
14415;DHT22;7307;50.852;4.314;2022-07-23T08:24:18;25.90;53.00
14415;DHT22;7307;50.852;4.314;2022-07-23T08:26:44;25.80;52.50
14415;DHT22;7307;50.852;4.314;2022-07-23T08:29:10;25.80;52.90
14415;DHT22;7307;50.852;4.314;2022-07-23T08:31:35;25.80;52.90
14415;DHT22;7307;50.852;4.314;2022-07-23T08:34:01;25.80;53.40
14415;DHT22;7307;50.852;4.314;2022-07-23T08:36:28;25.80;53.80
14415;DHT22;7307;50.852;4.314;2022-07-23T08:38:54;25.80;53.90
14415;DHT22;7307;50.852;4.314;2022-07-23T08:41:20;25.90;53.90
14415;DHT22;7307;50.852;4.314;2022-07-23T08:43:46;25.80;53.90
14415;DHT22;7307;50.852;4.314;2022-07-23T08:46:13;25.90;54.10
14415;DHT22;7307;50.852;4.314;2022-07-23T08:48:39;25.80;53.80
14415;DHT22;7307;50.852;4.314;2022-07-23T08:51:06;25.90;53.80
14415;DHT22;7307;50.852;4.314;2022-07-23T08:53:33;25.90;53.60
14415;DHT22;7307;50.852;4.314;2022-07-23T08:56:02;25.80;53.50
14415;DHT22;7307;50.852;4.314;2022-07-23T08:58:29;25.90;53.60
14415;DHT22;7307;50.852;4.314;2022-07-23T09:00:56;25.90;53.40
14415;DHT22;7307;50.852;4.314;2022-07-23T09:03:28;25.90;53.30
14415;DHT22;7307;50.852;4.314;2022-07-23T09:05:55;25.90;53.30
14415;DHT22;7307;50.852;4.314;2022-07-23T09:11:03;25.90;53.70
14415;DHT22;7307;50.852;4.314;2022-07-23T09:13:51;25.90;54.00
14415;DHT22;7307;50.852;4.314;2022-07-23T09:16:27;25.90;54.00
14415;DHT22;7307;50.852;4.314;2022-07-23T09:19:05;25.90;54.60
14415;DHT22;7307;50.852;4.314;2022-07-23T09:21:36;25.90;53.70
14415;DHT22;7307;50.852;4.314;2022-07-23T09:24:11;25.90;54.30
14415;DHT22;7307;50.852;4.314;2022-07-23T09:26:39;25.90;54.40
14415;DHT22;7307;50.852;4.314;2022-07-23T09:31:44;25.90;53.30
14415;DHT22;7307;50.852;4.314;2022-07-23T09:36:48;25.90;52.90
14415;DHT22;7307;50.852;4.314;2022-07-23T09:39:16;25.90;52.90
14415;DHT22;7307;50.852;4.314;2022-07-23T09:41:45;25.90;52.90
14415;DHT22;7307;50.852;4.314;2022-07-23T09:44:16;25.90;53.00
14415;DHT22;7307;50.852;4.314;2022-07-23T09:46:44;25.90;52.50
14415;DHT22;7307;50.852;4.314;2022-07-23T09:49:12;25.90;52.90
14415;DHT22;7307;50.852;4.314;2022-07-23T09:51:59;25.90;53.00
14415;DHT22;7307;50.852;4.314;2022-07-23T09:54:37;25.90;53.30
14415;DHT22;7307;50.852;4.314;2022-07-23T09:57:12;25.90;53.00
14415;DHT22;7307;50.852;4.314;2022-07-23T09:59:42;25.90;53.20
14415;DHT22;7307;50.852;4.314;2022-07-23T10:02:11;25.90;53.00
14415;DHT22;7307;50.852;4.314;2022-07-23T10:04:40;26.00;53.30
14415;DHT22;7307;50.852;4.314;2022-07-23T10:07:08;26.00;53.30
14415;DHT22;7307;50.852;4.314;2022-07-23T10:09:37;25.90;52.90
14415;DHT22;7307;50.852;4.314;2022-07-23T10:12:06;26.00;53.40
14415;DHT22;7307;50.852;4.314;2022-07-23T10:14:46;26.00;53.20
14415;DHT22;7307;50.852;4.314;2022-07-23T10:17:21;26.00;52.70
14415;DHT22;7307;50.852;4.314;2022-07-23T10:19:49;26.00;52.10
14415;DHT22;7307;50.852;4.314;2022-07-23T10:22:21;26.00;52.20
14415;DHT22;7307;50.852;4.314;2022-07-23T10:24:59;26.00;52.60
14415;DHT22;7307;50.852;4.314;2022-07-23T10:41:03;26.00;51.20
14415;DHT22;7307;50.852;4.314;2022-07-23T10:43:32;26.00;51.50
14415;DHT22;7307;50.852;4.314;2022-07-23T10:46:25;26.00;51.40
14415;DHT22;7307;50.852;4.314;2022-07-23T10:54:38;26.00;51.00
14415;DHT22;7307;50.852;4.314;2022-07-23T10:57:06;26.00;51.40
14415;DHT22;7307;50.852;4.314;2022-07-23T11:02:33;26.00;52.00
14415;DHT22;7307;50.852;4.314;2022-07-23T11:05:03;26.00;51.80
14415;DHT22;7307;50.852;4.314;2022-07-23T11:07:29;26.00;51.90
14415;DHT22;7307;50.852;4.314;2022-07-23T11:09:55;26.00;52.00
14415;DHT22;7307;50.852;4.314;2022-07-23T11:17:35;26.10;51.80
14415;DHT22;7307;50.852;4.314;2022-07-23T11:22:47;26.10;51.90
14415;DHT22;7307;50.852;4.314;2022-07-23T11:25:35;26.10;52.10
14415;DHT22;7307;50.852;4.314;2022-07-23T11:28:15;26.10;52.30
14415;DHT22;7307;50.852;4.314;2022-07-23T11:30:46;26.10;52.00
14415;DHT22;7307;50.852;4.314;2022-07-23T11:35:44;26.10;51.20
14415;DHT22;7307;50.852;4.314;2022-07-23T11:40:48;26.10;50.90
14415;DHT22;7307;50.852;4.314;2022-07-23T11:43:14;26.20;50.90
14415;DHT22;7307;50.852;4.314;2022-07-23T11:45:48;26.10;51.00
14415;DHT22;7307;50.852;4.314;2022-07-23T11:48:21;26.20;50.90
14415;DHT22;7307;50.852;4.314;2022-07-23T11:50:48;26.20;50.80
14415;DHT22;7307;50.852;4.314;2022-07-23T11:53:31;26.20;50.70
14415;DHT22;7307;50.852;4.314;2022-07-23T11:56:08;26.20;50.60
14415;DHT22;7307;50.852;4.314;2022-07-23T11:58:37;26.20;50.70
14415;DHT22;7307;50.852;4.314;2022-07-23T12:03:28;26.20;50.80
14415;DHT22;7307;50.852;4.314;2022-07-23T12:06:05;26.20;50.90
14415;DHT22;7307;50.852;4.314;2022-07-23T12:08:30;26.20;50.90
14415;DHT22;7307;50.852;4.314;2022-07-23T12:10:56;26.20;51.00
14415;DHT22;7307;50.852;4.314;2022-07-23T12:13:22;26.20;51.10
14415;DHT22;7307;50.852;4.314;2022-07-23T12:15:53;26.20;51.20
14415;DHT22;7307;50.852;4.314;2022-07-23T12:18:24;26.20;51.30
14415;DHT22;7307;50.852;4.314;2022-07-23T12:20:53;26.20;51.40
14415;DHT22;7307;50.852;4.314;2022-07-23T12:23:23;26.20;51.40
14415;DHT22;7307;50.852;4.314;2022-07-23T12:25:50;26.20;51.50
14415;DHT22;7307;50.852;4.314;2022-07-23T12:28:28;26.30;51.60
14415;DHT22;7307;50.852;4.314;2022-07-23T12:31:11;26.20;51.60
14415;DHT22;7307;50.852;4.314;2022-07-23T12:33:39;26.30;51.70
14415;DHT22;7307;50.852;4.314;2022-07-23T12:36:09;26.30;51.70
14415;DHT22;7307;50.852;4.314;2022-07-23T12:38:43;26.30;51.80
14415;DHT22;7307;50.852;4.314;2022-07-23T12:41:09;26.30;51.80
14415;DHT22;7307;50.852;4.314;2022-07-23T12:43:45;26.30;51.80
14415;DHT22;7307;50.852;4.314;2022-07-23T12:46:19;26.30;51.80
14415;DHT22;7307;50.852;4.314;2022-07-23T12:51:20;26.30;51.90
14415;DHT22;7307;50.852;4.314;2022-07-23T12:53:51;26.30;51.90
14415;DHT22;7307;50.852;4.314;2022-07-23T12:56:20;26.30;52.00
14415;DHT22;7307;50.852;4.314;2022-07-23T12:58:50;26.30;52.00
14415;DHT22;7307;50.852;4.314;2022-07-23T13:06:25;26.30;52.10
14415;DHT22;7307;50.852;4.314;2022-07-23T13:08:51;26.30;52.10
14415;DHT22;7307;50.852;4.314;2022-07-23T13:11:17;26.30;52.10
14415;DHT22;7307;50.852;4.314;2022-07-23T13:13:42;26.30;52.10
14415;DHT22;7307;50.852;4.314;2022-07-23T13:16:08;26.30;52.10
14415;DHT22;7307;50.852;4.314;2022-07-23T13:18:34;26.30;52.10
14415;DHT22;7307;50.852;4.314;2022-07-23T13:21:00;26.30;52.20
14415;DHT22;7307;50.852;4.314;2022-07-23T13:23:26;26.30;52.20
14415;DHT22;7307;50.852;4.314;2022-07-23T13:25:52;26.30;52.20
14415;DHT22;7307;50.852;4.314;2022-07-23T13:28:19;26.30;52.20
14415;DHT22;7307;50.852;4.314;2022-07-23T13:30:47;26.30;52.20
14415;DHT22;7307;50.852;4.314;2022-07-23T13:33:15;26.30;52.80
14415;DHT22;7307;50.852;4.314;2022-07-23T13:35:41;26.30;52.20
14415;DHT22;7307;50.852;4.314;2022-07-23T13:38:07;26.30;52.20
14415;DHT22;7307;50.852;4.314;2022-07-23T13:40:35;26.30;52.20
14415;DHT22;7307;50.852;4.314;2022-07-23T13:43:01;26.30;52.20
14415;DHT22;7307;50.852;4.314;2022-07-23T13:45:27;26.30;52.30
14415;DHT22;7307;50.852;4.314;2022-07-23T13:47:52;26.30;52.30
14415;DHT22;7307;50.852;4.314;2022-07-23T13:50:18;26.30;52.30
14415;DHT22;7307;50.852;4.314;2022-07-23T13:52:44;26.30;52.30
14415;DHT22;7307;50.852;4.314;2022-07-23T13:55:10;26.30;52.30
14415;DHT22;7307;50.852;4.314;2022-07-23T13:57:36;26.30;52.30
14415;DHT22;7307;50.852;4.314;2022-07-23T14:00:04;26.30;52.30
14415;DHT22;7307;50.852;4.314;2022-07-23T14:02:31;26.40;52.40
14415;DHT22;7307;50.852;4.314;2022-07-23T14:04:57;26.30;52.30
14415;DHT22;7307;50.852;4.314;2022-07-23T14:07:22;26.30;52.30
14415;DHT22;7307;50.852;4.314;2022-07-23T14:09:48;26.30;52.30
14415;DHT22;7307;50.852;4.314;2022-07-23T14:12:13;26.40;52.40
14415;DHT22;7307;50.852;4.314;2022-07-23T14:14:39;26.30;52.30
14415;DHT22;7307;50.852;4.314;2022-07-23T14:17:05;26.30;52.30
14415;DHT22;7307;50.852;4.314;2022-07-23T14:19:30;26.30;52.30
14415;DHT22;7307;50.852;4.314;2022-07-23T14:21:56;26.40;52.50
14415;DHT22;7307;50.852;4.314;2022-07-23T14:24:22;26.40;52.50
14415;DHT22;7307;50.852;4.314;2022-07-23T14:26:47;26.30;52.30
14415;DHT22;7307;50.852;4.314;2022-07-23T14:29:13;26.40;52.50
14415;DHT22;7307;50.852;4.314;2022-07-23T14:31:39;26.40;52.50
14415;DHT22;7307;50.852;4.314;2022-07-23T14:34:04;26.40;52.50
14415;DHT22;7307;50.852;4.314;2022-07-23T14:36:30;26.40;52.50
14415;DHT22;7307;50.852;4.314;2022-07-23T14:38:56;26.40;52.50
14415;DHT22;7307;50.852;4.314;2022-07-23T14:41:21;26.40;52.50
14415;DHT22;7307;50.852;4.314;2022-07-23T14:43:47;26.40;52.50
14415;DHT22;7307;50.852;4.314;2022-07-23T14:46:13;26.40;52.50
14415;DHT22;7307;50.852;4.314;2022-07-23T14:48:39;26.40;52.50
14415;DHT22;7307;50.852;4.314;2022-07-23T14:51:04;26.40;52.50
14415;DHT22;7307;50.852;4.314;2022-07-23T14:53:30;26.40;52.50
14415;DHT22;7307;50.852;4.314;2022-07-23T14:55:56;26.40;52.50
14415;DHT22;7307;50.852;4.314;2022-07-23T14:58:25;26.40;52.50
14415;DHT22;7307;50.852;4.314;2022-07-23T15:00:51;26.40;52.50
14415;DHT22;7307;50.852;4.314;2022-07-23T15:03:16;26.40;52.60
14415;DHT22;7307;50.852;4.314;2022-07-23T15:05:42;26.40;52.50
14415;DHT22;7307;50.852;4.314;2022-07-23T15:08:08;26.40;52.50
14415;DHT22;7307;50.852;4.314;2022-07-23T15:10:34;26.40;52.50
14415;DHT22;7307;50.852;4.314;2022-07-23T15:12:59;26.40;52.50
14415;DHT22;7307;50.852;4.314;2022-07-23T15:15:25;26.40;52.50
14415;DHT22;7307;50.852;4.314;2022-07-23T15:17:53;26.40;52.50
14415;DHT22;7307;50.852;4.314;2022-07-23T15:20:19;26.40;52.60
14415;DHT22;7307;50.852;4.314;2022-07-23T15:22:45;26.40;53.20
14415;DHT22;7307;50.852;4.314;2022-07-23T15:25:13;26.40;52.60
14415;DHT22;7307;50.852;4.314;2022-07-23T15:27:39;26.40;52.60
14415;DHT22;7307;50.852;4.314;2022-07-23T15:30:05;26.40;52.60
14415;DHT22;7307;50.852;4.314;2022-07-23T15:32:31;26.50;52.60
14415;DHT22;7307;50.852;4.314;2022-07-23T15:34:57;26.40;52.60
14415;DHT22;7307;50.852;4.314;2022-07-23T15:37:23;26.50;53.20
14415;DHT22;7307;50.852;4.314;2022-07-23T15:39:49;26.50;52.60
14415;DHT22;7307;50.852;4.314;2022-07-23T15:42:15;26.50;52.70
14415;DHT22;7307;50.852;4.314;2022-07-23T15:44:42;26.50;52.70
14415;DHT22;7307;50.852;4.314;2022-07-23T15:47:13;26.50;52.70
14415;DHT22;7307;50.852;4.314;2022-07-23T15:49:39;26.50;52.70
14415;DHT22;7307;50.852;4.314;2022-07-23T15:52:04;26.50;52.70
14415;DHT22;7307;50.852;4.314;2022-07-23T15:54:30;26.50;53.30
14415;DHT22;7307;50.852;4.314;2022-07-23T15:56:56;26.50;52.70
14415;DHT22;7307;50.852;4.314;2022-07-23T15:59:22;26.50;52.70
14415;DHT22;7307;50.852;4.314;2022-07-23T16:01:48;26.50;52.70
14415;DHT22;7307;50.852;4.314;2022-07-23T16:04:16;26.50;52.70
14415;DHT22;7307;50.852;4.314;2022-07-23T16:06:42;26.50;52.70
14415;DHT22;7307;50.852;4.314;2022-07-23T16:09:08;26.50;52.70
14415;DHT22;7307;50.852;4.314;2022-07-23T16:11:34;26.50;52.70
14415;DHT22;7307;50.852;4.314;2022-07-23T16:14:00;26.50;52.70
14415;DHT22;7307;50.852;4.314;2022-07-23T16:16:26;26.50;52.70
14415;DHT22;7307;50.852;4.314;2022-07-23T16:18:55;26.50;52.70
14415;DHT22;7307;50.852;4.314;2022-07-23T16:21:22;26.50;52.70
14415;DHT22;7307;50.852;4.314;2022-07-23T16:23:47;26.50;52.70
14415;DHT22;7307;50.852;4.314;2022-07-23T16:26:13;26.50;52.70
14415;DHT22;7307;50.852;4.314;2022-07-23T16:28:41;26.50;52.70
14415;DHT22;7307;50.852;4.314;2022-07-23T16:31:14;26.50;52.70
14415;DHT22;7307;50.852;4.314;2022-07-23T16:33:45;26.50;52.70
14415;DHT22;7307;50.852;4.314;2022-07-23T16:36:12;26.50;52.70
14415;DHT22;7307;50.852;4.314;2022-07-23T16:38:41;26.50;52.70